Time;durP1;ratioP1;P1;durP2;ratioP2;P2;SDS_P1;SDS_P2;PMS_P1;PMS_P2;Temp;Humidity;BMP_temperature;BMP_pressure;BME280_temperature;BME280_humidity;BME280_pressure;Samples;Min_cycle;Max_cycle;Signal;HPM_P1;HPM_P2
2023/07/05 00:00:26;;;;;;;10.43;4.75;;;15.60;99.90;;;;;;5133299;28;20083;-69
2023/07/05 00:02:52;;;;;;;8.63;4.45;;;15.60;99.90;;;;;;5135180;28;20043;-69
2023/07/05 00:05:19;;;;;;;11.13;4.72;;;15.60;99.90;;;;;;5134335;28;20121;-68
2023/07/05 00:07:44;;;;;;;10.50;4.95;;;15.60;99.90;;;;;;5134348;28;20039;-68
2023/07/05 00:10:11;;;;;;;10.27;5.03;;;15.60;99.90;;;;;;5134668;28;20494;-68
2023/07/05 00:12:37;;;;;;;11.27;4.95;;;15.60;99.90;;;;;;5134408;28;20038;-68
2023/07/05 00:15:04;;;;;;;10.53;4.77;;;15.60;99.90;;;;;;5135069;27;20047;-66
2023/07/05 00:17:33;;;;;;;14.70;4.93;;;15.50;99.90;;;;;;5138552;27;20372;-69
2023/07/05 00:20:00;;;;;;;13.95;5.18;;;15.60;99.90;;;;;;5138634;27;20046;-69
2023/07/05 00:22:29;;;;;;;9.37;5.03;;;15.50;99.90;;;;;;5138575;27;20130;-69
2023/07/05 00:24:55;;;;;;;12.50;5.72;;;15.50;99.90;;;;;;5138324;27;20043;-69
2023/07/05 00:27:22;;;;;;;11.57;5.45;;;15.50;99.90;;;;;;5138170;27;20485;-68
2023/07/05 00:29:49;;;;;;;12.88;5.65;;;15.50;99.90;;;;;;5138325;27;20057;-68
2023/07/05 00:32:15;;;;;;;12.07;5.18;;;15.50;99.90;;;;;;5138314;27;20053;-69
2023/07/05 00:34:41;;;;;;;10.45;5.47;;;15.50;99.90;;;;;;5138918;27;20490;-68
2023/07/05 00:37:06;;;;;;;13.23;5.88;;;15.50;99.90;;;;;;5145226;27;20035;-67
2023/07/05 00:39:32;;;;;;;11.63;5.50;;;15.50;99.90;;;;;;5149780;27;20126;-67
2023/07/05 00:41:58;;;;;;;12.05;5.93;;;15.50;99.90;;;;;;5120161;27;20039;-67
2023/07/05 00:44:24;;;;;;;13.07;5.88;;;15.50;99.90;;;;;;5103712;27;20055;-68
2023/07/05 00:46:57;;;;;;;12.18;5.70;;;15.50;99.90;;;;;;5138376;27;20047;-68
2023/07/05 00:49:26;;;;;;;13.38;6.70;;;15.50;99.90;;;;;;5138305;27;20103;-68
2023/07/05 00:52:00;;;;;;;13.88;6.32;;;15.50;99.90;;;;;;5137705;27;20099;-70
2023/07/05 00:54:31;;;;;;;11.55;5.93;;;15.50;99.90;;;;;;5120336;27;20114;-68
2023/07/05 00:57:07;;;;;;;14.30;6.53;;;15.50;99.90;;;;;;5137776;27;20039;-68
2023/07/05 00:59:38;;;;;;;14.15;6.32;;;15.50;99.90;;;;;;5137278;27;20370;-68
2023/07/05 01:02:04;;;;;;;13.75;6.10;;;15.60;99.90;;;;;;5102271;27;20088;-67
2023/07/05 01:04:33;;;;;;;13.20;6.35;;;15.60;99.90;;;;;;5137375;27;20075;-67
2023/07/05 01:06:58;;;;;;;13.73;6.15;;;15.50;99.90;;;;;;5137182;27;20047;-69
2023/07/05 01:09:26;;;;;;;16.67;6.38;;;15.60;99.90;;;;;;5119074;27;20509;-69
2023/07/05 01:12:26;;;;;;;15.52;6.57;;;15.60;99.90;;;;;;5153207;27;20131;-68
2023/07/05 01:15:19;;;;;;;13.10;6.25;;;15.50;99.90;;;;;;5136851;27;20494;-70
2023/07/05 01:18:04;;;;;;;13.65;6.57;;;15.50;99.90;;;;;;5119426;27;20047;-72
2023/07/05 01:20:48;;;;;;;12.18;6.47;;;15.40;99.90;;;;;;5118409;27;20058;-72
2023/07/05 01:23:41;;;;;;;16.42;7.30;;;15.40;99.90;;;;;;5119603;27;20423;-73
2023/07/05 01:26:28;;;;;;;19.13;7.03;;;15.30;99.90;;;;;;5136941;27;20050;-72
2023/07/05 01:29:30;;;;;;;12.02;5.93;;;15.30;99.90;;;;;;5136514;27;20375;-72
2023/07/05 01:32:24;;;;;;;12.73;6.88;;;15.30;99.90;;;;;;5136819;27;20054;-74
2023/07/05 01:35:05;;;;;;;12.63;6.50;;;15.20;99.90;;;;;;5118937;27;20070;-77
2023/07/05 01:37:40;;;;;;;14.43;6.78;;;15.10;99.90;;;;;;5119713;27;20051;-73
2023/07/05 01:40:25;;;;;;;16.00;7.00;;;15.10;99.90;;;;;;5118685;27;20043;-74
2023/07/05 01:42:55;;;;;;;13.70;7.10;;;15.10;99.90;;;;;;5136749;27;20043;-72
2023/07/05 01:45:29;;;;;;;15.45;6.30;;;15.10;99.90;;;;;;5136703;27;20197;-71
2023/07/05 01:48:04;;;;;;;11.48;6.50;;;15.10;99.90;;;;;;5118285;27;20047;-70
2023/07/05 01:50:54;;;;;;;16.00;7.57;;;15.10;99.90;;;;;;5118212;27;20131;-72
2023/07/05 01:54:00;;;;;;;13.98;6.78;;;15.10;99.90;;;;;;5118202;27;20078;-73
2023/07/05 01:56:35;;;;;;;17.58;6.75;;;15.10;99.90;;;;;;5136747;27;20069;-70
2023/07/05 01:59:04;;;;;;;15.77;7.13;;;15.10;99.90;;;;;;5136948;27;20092;-72
2023/07/05 02:01:31;;;;;;;14.70;6.75;;;15.10;99.90;;;;;;5118100;27;20130;-74
2023/07/05 02:03:58;;;;;;;13.07;6.75;;;15.10;99.90;;;;;;5136684;27;20055;-69
2023/07/05 02:06:26;;;;;;;15.23;6.20;;;15.10;99.90;;;;;;5136764;27;20039;-71
2023/07/05 02:08:52;;;;;;;17.73;7.70;;;15.20;99.90;;;;;;5140770;27;20087;-70
2023/07/05 02:11:18;;;;;;;12.38;7.03;;;15.10;99.90;;;;;;5145618;27;20043;-72
2023/07/05 02:13:44;;;;;;;14.77;7.63;;;15.10;99.90;;;;;;5142403;27;20050;-69
2023/07/05 02:16:10;;;;;;;16.30;7.47;;;15.10;99.90;;;;;;5139496;27;20383;-71
2023/07/05 02:18:35;;;;;;;15.50;6.93;;;15.10;99.90;;;;;;5138555;27;20050;-69
2023/07/05 02:21:01;;;;;;;14.40;7.50;;;15.00;99.90;;;;;;5117963;27;20039;-71
2023/07/05 02:23:27;;;;;;;12.77;7.00;;;15.00;99.90;;;;;;5118002;27;20047;-71
2023/07/05 02:25:58;;;;;;;13.52;7.35;;;15.00;99.90;;;;;;5100807;27;20050;-71
2023/07/05 02:28:23;;;;;;;15.68;8.10;;;15.00;99.90;;;;;;5136592;27;20051;-70
2023/07/05 02:30:49;;;;;;;14.85;7.55;;;15.00;99.90;;;;;;5136071;27;20074;-71
2023/07/05 02:33:15;;;;;;;12.93;7.00;;;15.10;99.90;;;;;;5137485;27;20046;-71
2023/07/05 02:35:41;;;;;;;16.02;7.47;;;15.00;99.90;;;;;;5117724;27;20471;-69
2023/07/05 02:38:06;;;;;;;16.77;7.90;;;15.00;99.90;;;;;;5140272;27;20126;-72
2023/07/05 02:40:33;;;;;;;21.23;6.55;;;15.00;99.90;;;;;;5142326;27;20066;-68
2023/07/05 02:42:59;;;;;;;15.57;7.88;;;15.00;99.90;;;;;;5103350;27;20134;-70
2023/07/05 02:45:28;;;;;;;15.65;7.25;;;15.00;99.90;;;;;;5144137;27;20417;-70
2023/07/05 02:47:55;;;;;;;13.18;6.75;;;15.00;99.90;;;;;;5136218;27;20061;-71
2023/07/05 02:50:21;;;;;;;13.98;7.57;;;15.00;99.90;;;;;;5117416;27;20058;-71
2023/07/05 02:52:47;;;;;;;15.75;7.60;;;15.00;99.90;;;;;;5135071;27;20043;-69
2023/07/05 02:55:13;;;;;;;13.80;7.45;;;15.00;99.90;;;;;;5117264;27;20069;-72
2023/07/05 02:57:38;;;;;;;14.80;7.57;;;15.00;99.90;;;;;;5135472;27;20044;-72
2023/07/05 03:00:06;;;;;;;13.38;7.07;;;15.00;99.90;;;;;;5099944;27;20095;-67
2023/07/05 03:02:32;;;;;;;14.88;8.00;;;15.00;99.90;;;;;;5135128;27;20055;-70
2023/07/05 03:05:05;;;;;;;15.40;8.15;;;15.00;99.90;;;;;;5116643;27;20073;-71
2023/07/05 03:07:30;;;;;;;14.82;7.15;;;15.00;99.90;;;;;;5135862;27;20046;-70
2023/07/05 03:09:56;;;;;;;12.93;6.40;;;15.10;99.90;;;;;;5117267;27;20467;-71
2023/07/05 03:12:22;;;;;;;11.77;6.03;;;15.10;99.90;;;;;;5135040;27;20100;-70
2023/07/05 03:14:48;;;;;;;15.15;6.78;;;15.10;99.90;;;;;;5099980;27;20039;-68
2023/07/05 03:17:14;;;;;;;14.98;6.55;;;15.10;99.90;;;;;;5117240;27;20043;-71
2023/07/05 03:19:40;;;;;;;15.57;7.32;;;15.20;99.90;;;;;;5135520;27;20121;-71
2023/07/05 03:22:05;;;;;;;13.07;6.22;;;15.20;99.90;;;;;;5116347;27;20051;-71
2023/07/05 03:24:31;;;;;;;13.23;6.90;;;15.30;99.90;;;;;;5116527;27;20051;-69
2023/07/05 03:26:57;;;;;;;14.40;6.85;;;15.30;99.90;;;;;;5134379;27;20043;-71
2023/07/05 03:29:22;;;;;;;13.30;6.70;;;15.40;99.90;;;;;;5099495;27;20380;-70
2023/07/05 03:31:48;;;;;;;12.45;6.32;;;15.40;99.90;;;;;;5116462;27;20047;-72
2023/07/05 03:34:15;;;;;;;12.30;6.55;;;15.40;99.90;;;;;;5150556;27;20051;-71
2023/07/05 03:36:41;;;;;;;13.82;8.10;;;15.40;99.90;;;;;;5135655;27;20109;-71
2023/07/05 03:39:07;;;;;;;14.18;6.75;;;15.40;99.90;;;;;;5134439;27;20082;-70
2023/07/05 03:41:32;;;;;;;16.70;7.05;;;15.40;99.90;;;;;;5116586;27;20047;-71
2023/07/05 03:44:02;;;;;;;14.40;6.40;;;15.50;99.90;;;;;;5117154;27;20372;-71
2023/07/05 03:46:29;;;;;;;12.77;7.05;;;15.50;99.90;;;;;;5135976;27;20459;-70
2023/07/05 03:48:54;;;;;;;15.45;7.55;;;15.60;99.90;;;;;;5136047;28;20051;-71
2023/07/05 03:51:22;;;;;;;10.40;5.72;;;15.60;99.90;;;;;;5134216;27;20372;-71
2023/07/05 03:53:53;;;;;;;10.77;6.50;;;15.60;99.90;;;;;;5134501;28;20513;-72
2023/07/05 03:56:19;;;;;;;14.63;7.28;;;15.60;99.90;;;;;;5116392;28;20082;-70
2023/07/05 03:58:45;;;;;;;14.15;7.22;;;15.60;99.90;;;;;;5134444;28;20035;-70
2023/07/05 04:01:15;;;;;;;10.98;6.03;;;15.60;99.90;;;;;;5116386;28;20432;-72
2023/07/05 04:03:46;;;;;;;10.52;5.13;;;15.60;99.90;;;;;;5134292;28;20105;-70
2023/07/05 04:06:12;;;;;;;12.57;4.97;;;15.60;99.90;;;;;;5134241;28;20122;-71
2023/07/05 04:08:39;;;;;;;10.77;4.85;;;15.60;99.90;;;;;;5134303;28;20043;-71
2023/07/05 04:11:05;;;;;;;11.77;4.28;;;15.60;99.90;;;;;;5134325;28;20161;-70
2023/07/05 04:13:31;;;;;;;9.27;3.63;;;15.70;99.90;;;;;;5116230;28;20055;-72
2023/07/05 04:16:03;;;;;;;10.18;3.80;;;15.70;99.90;;;;;;5134038;28;20047;-71
2023/07/05 04:18:30;;;;;;;7.80;2.90;;;15.70;99.90;;;;;;5134287;28;20038;-70
2023/07/05 04:20:57;;;;;;;5.93;2.10;;;15.70;99.90;;;;;;5133948;28;20095;-70
2023/07/05 04:23:23;;;;;;;5.97;1.70;;;15.70;99.90;;;;;;5099238;28;20059;-71
2023/07/05 04:25:49;;;;;;;4.80;1.80;;;15.70;99.90;;;;;;5134092;28;20047;-71
2023/07/05 04:28:18;;;;;;;7.10;2.45;;;15.60;99.90;;;;;;5134183;28;20082;-70
2023/07/05 04:30:43;;;;;;;5.63;2.00;;;15.60;99.90;;;;;;5116869;28;20070;-69
2023/07/05 04:33:09;;;;;;;4.68;1.98;;;15.50;99.90;;;;;;5115689;28;20047;-70
2023/07/05 04:35:35;;;;;;;6.10;1.90;;;15.40;99.90;;;;;;5115886;28;20047;-70
2023/07/05 04:38:01;;;;;;;4.75;2.45;;;15.40;99.90;;;;;;5098540;28;20051;-70
2023/07/05 04:40:26;;;;;;;5.75;2.75;;;15.30;99.90;;;;;;5115836;28;20473;-69
2023/07/05 04:42:52;;;;;;;6.78;2.80;;;15.20;99.90;;;;;;5133795;28;20050;-69
2023/07/05 04:45:18;;;;;;;5.57;2.80;;;15.20;99.90;;;;;;5098631;28;20043;-70
2023/07/05 04:47:44;;;;;;;6.53;2.65;;;15.10;99.90;;;;;;5116014;28;20127;-70
2023/07/05 04:50:09;;;;;;;6.95;2.95;;;15.00;99.90;;;;;;5134024;28;20039;-70
2023/07/05 04:52:35;;;;;;;7.95;3.35;;;14.90;99.90;;;;;;5133737;28;20188;-68
2023/07/05 04:55:01;;;;;;;6.93;3.33;;;14.80;99.90;;;;;;5116252;28;20122;-69
2023/07/05 04:57:29;;;;;;;6.97;2.67;;;14.70;99.90;;;;;;5115459;28;20050;-69
2023/07/05 04:59:55;;;;;;;6.93;3.20;;;14.50;99.90;;;;;;5133958;28;20394;-70
2023/07/05 05:02:21;;;;;;;7.93;3.40;;;14.50;99.90;;;;;;5134578;27;20051;-68
2023/07/05 05:04:47;;;;;;;7.30;3.13;;;14.50;99.90;;;;;;5137255;27;20043;-69
2023/07/05 05:07:13;;;;;;;7.32;3.53;;;14.50;99.90;;;;;;5136935;27;20126;-69
2023/07/05 05:09:40;;;;;;;6.97;3.30;;;14.60;99.90;;;;;;5118832;27;20092;-70
2023/07/05 05:12:07;;;;;;;9.10;3.25;;;14.70;99.90;;;;;;5118836;27;20429;-69
2023/07/05 05:14:33;;;;;;;6.50;2.95;;;14.60;99.90;;;;;;5137704;27;20050;-69
2023/07/05 05:16:59;;;;;;;8.45;3.35;;;14.70;99.90;;;;;;5137269;27;20475;-70
2023/07/05 05:19:25;;;;;;;6.65;3.00;;;14.80;99.90;;;;;;5118780;27;20126;-68
2023/07/05 05:21:50;;;;;;;5.75;2.92;;;14.80;99.90;;;;;;5137047;27;20058;-70
2023/07/05 05:24:16;;;;;;;6.28;2.83;;;14.90;99.90;;;;;;5118301;27;20054;-69
2023/07/05 05:26:42;;;;;;;7.47;2.83;;;15.00;99.90;;;;;;5137278;27;20039;-70
2023/07/05 05:29:07;;;;;;;5.50;2.53;;;15.00;99.90;;;;;;5118306;27;20057;-70
2023/07/05 05:31:33;;;;;;;7.07;2.50;;;15.10;99.90;;;;;;5101052;27;20047;-70
2023/07/05 05:33:59;;;;;;;6.18;2.63;;;15.00;99.90;;;;;;5135524;27;20047;-70
2023/07/05 05:36:24;;;;;;;7.53;2.80;;;15.00;99.90;;;;;;5118531;27;20482;-70
2023/07/05 05:38:50;;;;;;;6.88;2.33;;;15.00;99.90;;;;;;5135573;27;20055;-69
2023/07/05 05:41:16;;;;;;;6.85;2.67;;;15.00;99.90;;;;;;5136373;27;20054;-70
2023/07/05 05:43:43;;;;;;;5.93;2.20;;;15.00;99.90;;;;;;5136394;27;20126;-69
2023/07/05 05:46:09;;;;;;;4.47;1.95;;;15.00;99.90;;;;;;5136511;27;20395;-69
2023/07/05 05:48:35;;;;;;;5.72;2.45;;;15.10;99.90;;;;;;5136223;27;20044;-70
2023/07/05 05:51:01;;;;;;;4.97;2.03;;;15.00;99.90;;;;;;5135956;27;20055;-69
2023/07/05 05:53:26;;;;;;;9.85;2.33;;;15.10;99.90;;;;;;5117753;27;20102;-69
2023/07/05 05:55:55;;;;;;;7.63;2.03;;;15.10;99.90;;;;;;5136115;27;20150;-68
2023/07/05 05:58:21;;;;;;;5.05;1.90;;;15.20;99.90;;;;;;5117532;27;20509;-69
2023/07/05 06:00:47;;;;;;;5.80;2.10;;;15.20;99.90;;;;;;5136056;27;20043;-68
2023/07/05 06:03:13;;;;;;;4.82;1.63;;;15.20;99.90;;;;;;5151979;27;20045;-70
2023/07/05 06:05:38;;;;;;;6.35;2.45;;;15.30;99.90;;;;;;5101230;27;20051;-69
2023/07/05 06:08:04;;;;;;;5.82;2.08;;;15.20;99.90;;;;;;5100509;27;20043;-68
2023/07/05 06:10:30;;;;;;;6.32;2.35;;;15.30;99.90;;;;;;5118075;27;20283;-69
2023/07/05 06:12:56;;;;;;;5.38;2.10;;;15.40;99.90;;;;;;5117314;27;20054;-72
2023/07/05 06:15:22;;;;;;;6.60;2.53;;;15.50;99.90;;;;;;5100988;27;20050;-69
2023/07/05 06:17:47;;;;;;;6.90;2.75;;;15.80;99.90;;;;;;5152342;27;20125;-71
2023/07/05 06:20:16;;;;;;;5.82;2.28;;;16.00;99.90;;;;;;5100377;27;20050;-70
2023/07/05 06:22:42;;;;;;;7.03;2.40;;;16.10;99.90;;;;;;5117734;27;20047;-70
2023/07/05 06:25:12;;;;;;;7.23;2.50;;;16.20;99.90;;;;;;5117328;27;20099;-70
2023/07/05 06:27:39;;;;;;;6.95;2.58;;;16.20;99.90;;;;;;5135254;27;20807;-69
2023/07/05 06:30:05;;;;;;;4.80;1.92;;;16.20;99.90;;;;;;5100066;27;20047;-70
2023/07/05 06:32:32;;;;;;;7.93;2.30;;;16.20;99.90;;;;;;5135453;27;20047;-69
2023/07/05 06:34:58;;;;;;;6.28;1.85;;;16.20;99.90;;;;;;5135577;27;20058;-69
2023/07/05 06:37:24;;;;;;;8.35;2.25;;;16.20;99.90;;;;;;5135007;27;20043;-71
2023/07/05 06:39:50;;;;;;;7.00;1.63;;;16.20;99.90;;;;;;5135235;27;20054;-69
2023/07/05 06:42:16;;;;;;;6.38;1.77;;;16.20;99.90;;;;;;5135381;27;20047;-70
2023/07/05 06:44:41;;;;;;;5.80;2.05;;;16.40;99.90;;;;;;5117148;27;20043;-70
2023/07/05 06:47:07;;;;;;;7.05;2.03;;;16.50;99.90;;;;;;5135244;27;20104;-70
2023/07/05 06:49:33;;;;;;;5.00;1.85;;;16.50;99.90;;;;;;5116944;27;20050;-70
2023/07/05 06:51:59;;;;;;;4.30;1.50;;;16.40;99.90;;;;;;5135776;27;20075;-71
2023/07/05 06:54:24;;;;;;;6.80;2.25;;;16.40;99.90;;;;;;5134758;27;20035;-69
2023/07/05 06:56:50;;;;;;;5.40;2.00;;;16.30;99.90;;;;;;5135831;27;20042;-68
2023/07/05 06:59:16;;;;;;;7.22;1.95;;;16.10;99.90;;;;;;5135092;27;20467;-72
2023/07/05 07:01:43;;;;;;;5.68;2.33;;;16.20;99.90;;;;;;5151036;27;20394;-70
2023/07/05 07:04:08;;;;;;;;;;;16.30;99.90;;;;;;5099879;27;20047;-70
2023/07/05 07:06:34;;;;;;;6.10;1.83;;;16.50;99.90;;;;;;5099663;27;20009;-70
2023/07/05 07:09:05;;;;;;;7.65;1.70;;;16.50;99.90;;;;;;5134817;27;20035;-68
2023/07/05 07:11:31;;;;;;;5.63;2.00;;;16.30;99.90;;;;;;5134789;27;20047;-69
2023/07/05 07:13:56;;;;;;;4.45;1.85;;;16.10;99.90;;;;;;5116448;27;20384;-71
2023/07/05 07:16:22;;;;;;;6.78;2.20;;;15.90;99.90;;;;;;5116561;27;20084;-68
2023/07/05 07:18:50;;;;;;;5.82;2.00;;;15.70;99.90;;;;;;5116542;27;20505;-71
2023/07/05 07:21:17;;;;;;;6.20;2.00;;;15.50;99.90;;;;;;5117085;27;20039;-71
2023/07/05 07:23:46;;;;;;;6.45;2.10;;;15.30;99.90;;;;;;5134602;27;20096;-68
2023/07/05 07:26:16;;;;;;;6.28;2.08;;;15.00;99.90;;;;;;5115993;27;20039;-68
2023/07/05 07:28:45;;;;;;;5.40;1.58;;;14.90;99.90;;;;;;5098924;27;20055;-69
2023/07/05 07:31:13;;;;;;;6.10;1.90;;;14.90;99.90;;;;;;5134562;27;20054;-69
2023/07/05 07:33:38;;;;;;;5.82;1.63;;;14.80;99.90;;;;;;5117208;27;20463;-73
2023/07/05 07:36:12;;;;;;;4.72;1.83;;;14.60;99.90;;;;;;5135042;27;20058;-69
2023/07/05 07:38:39;;;;;;;4.20;0.40;;;14.50;99.90;;;;;;5099633;27;20046;-69
2023/07/05 07:41:15;;;;;;;2.53;0.70;;;14.10;99.90;;;;;;5099977;27;20513;-71
2023/07/05 07:43:41;;;;;;;2.05;0.60;;;13.60;99.90;;;;;;5134682;27;20043;-69
2023/07/05 07:46:09;;;;;;;4.82;0.65;;;13.50;99.90;;;;;;5116528;28;20043;-68
2023/07/05 07:48:34;;;;;;;3.22;0.60;;;13.30;99.90;;;;;;5116043;27;20510;-68
2023/07/05 07:51:00;;;;;;;2.22;0.50;;;13.30;99.90;;;;;;5116162;28;20151;-71
2023/07/05 07:53:26;;;;;;;5.05;0.50;;;13.30;99.90;;;;;;5098987;28;20045;-69
2023/07/05 07:55:51;;;;;;;2.33;0.45;;;13.30;99.90;;;;;;5134442;28;20378;-68
2023/07/05 07:58:17;;;;;;;3.33;0.30;;;13.20;99.90;;;;;;5134411;28;20035;-68
2023/07/05 08:00:43;;;;;;;1.75;0.30;;;13.20;99.90;;;;;;5134540;28;20107;-68
2023/07/05 08:03:08;;;;;;;2.30;0.32;;;13.10;99.90;;;;;;5134526;28;20047;-68
2023/07/05 08:05:34;;;;;;;2.45;0.30;;;13.20;99.90;;;;;;5135085;28;20487;-68
2023/07/05 08:08:00;;;;;;;1.85;0.40;;;13.10;99.90;;;;;;5136820;28;20051;-69
2023/07/05 08:10:28;;;;;;;2.05;0.30;;;13.00;99.90;;;;;;5117306;28;20051;-69
2023/07/05 08:12:54;;;;;;;2.58;0.30;;;13.00;99.90;;;;;;5117810;28;20045;-68
2023/07/05 08:15:19;;;;;;;0.75;0.20;;;13.00;99.90;;;;;;5134092;28;20122;-68
2023/07/05 08:17:45;;;;;;;2.50;0.30;;;12.90;99.90;;;;;;5134196;28;20035;-69
2023/07/05 08:20:13;;;;;;;1.70;0.30;;;12.90;99.90;;;;;;5134211;28;20054;-69
2023/07/05 08:22:38;;;;;;;3.90;0.43;;;13.00;99.90;;;;;;5115826;28;20046;-68
2023/07/05 08:25:04;;;;;;;1.17;0.30;;;13.10;99.90;;;;;;5115876;28;20047;-69
2023/07/05 08:27:30;;;;;;;2.13;0.40;;;13.20;99.90;;;;;;5133832;28;20055;-67
2023/07/05 08:29:56;;;;;;;2.13;0.40;;;13.30;99.90;;;;;;5115756;28;20105;-68
2023/07/05 08:32:21;;;;;;;1.77;0.30;;;13.30;99.90;;;;;;5115912;28;20458;-71
2023/07/05 08:34:49;;;;;;;3.45;0.50;;;13.40;99.90;;;;;;5116068;28;20479;-66
2023/07/05 08:37:15;;;;;;;;;;;13.40;99.90;;;;;;5102252;27;20051;-67
2023/07/05 08:39:40;;;;;;;1.67;0.37;;;13.40;99.90;;;;;;5120785;27;19923;-69
2023/07/05 08:42:18;;;;;;;2.13;0.40;;;13.30;99.90;;;;;;5155026;27;20126;-68
2023/07/05 08:44:52;;;;;;;4.45;0.57;;;13.10;99.90;;;;;;5138266;27;20050;-66
2023/07/05 08:47:34;;;;;;;2.30;0.40;;;12.90;99.90;;;;;;5138665;27;20039;-69
2023/07/05 08:50:22;;;;;;;3.42;0.55;;;12.90;99.90;;;;;;5137815;27;20078;-67
2023/07/05 08:52:50;;;;;;;2.95;0.70;;;12.80;99.90;;;;;;5119750;27;20086;-67
2023/07/05 08:55:22;;;;;;;3.05;0.60;;;12.50;99.90;;;;;;5103604;27;20134;-68
2023/07/05 08:57:53;;;;;;;2.40;0.55;;;12.40;99.90;;;;;;5119512;27;20431;-69
2023/07/05 09:00:28;;;;;;;3.13;0.55;;;12.30;99.90;;;;;;5137541;27;20043;-68
2023/07/05 09:02:53;;;;;;;4.07;0.80;;;12.30;99.90;;;;;;5103121;27;20111;-69
2023/07/05 09:05:33;;;;;;;2.40;0.68;;;12.20;99.90;;;;;;5137860;27;20416;-67
2023/07/05 09:08:06;;;;;;;5.35;0.82;;;12.10;99.90;;;;;;5119130;27;20043;-68
2023/07/05 09:10:41;;;;;;;3.95;0.70;;;12.10;99.90;;;;;;5137174;27;20095;-68
2023/07/05 09:13:19;;;;;;;4.78;0.77;;;12.10;99.90;;;;;;5137794;27;20039;-66
2023/07/05 09:15:56;;;;;;;4.75;0.70;;;12.10;99.90;;;;;;5119626;27;20371;-67
2023/07/05 09:18:33;;;;;;;;;;;12.20;99.90;;;;;;5138013;27;20375;-67
2023/07/05 09:21:38;;;;;;;3.70;0.50;;;12.20;99.90;;;;;;5154216;27;19919;-66
2023/07/05 09:24:04;;;;;;;6.28;0.90;;;12.30;99.90;;;;;;5137013;27;20133;-69
2023/07/05 09:26:40;;;;;;;7.70;1.10;;;12.30;99.90;;;;;;5118609;27;20125;-68
2023/07/05 09:29:18;;;;;;;7.72;0.93;;;12.30;99.90;;;;;;5152854;27;20055;-67
2023/07/05 09:31:45;;;;;;;7.65;1.00;;;12.30;99.90;;;;;;5118614;27;20053;-68
2023/07/05 09:34:36;;;;;;;5.07;0.75;;;12.30;99.90;;;;;;5153173;27;20052;-67
2023/07/05 09:37:20;;;;;;;3.33;0.75;;;12.40;99.90;;;;;;5136779;27;20058;-69
2023/07/05 09:39:53;;;;;;;4.75;0.77;;;12.50;99.90;;;;;;5136753;27;20043;-67
2023/07/05 09:42:47;;;;;;;8.27;1.02;;;12.50;99.90;;;;;;5136755;27;20047;-66
2023/07/05 09:45:15;;;;;;;5.13;1.08;;;12.50;99.90;;;;;;5152018;27;20047;-66
2023/07/05 09:47:43;;;;;;;8.55;1.13;;;12.50;99.90;;;;;;5135685;27;20082;-67
2023/07/05 09:50:16;;;;;;;8.05;0.98;;;12.50;99.90;;;;;;5118201;27;20050;-67
2023/07/05 09:52:51;;;;;;;8.38;1.08;;;12.50;99.90;;;;;;5136265;27;20061;-67
2023/07/05 09:55:19;;;;;;;6.88;1.17;;;12.50;99.90;;;;;;5136562;27;20167;-67
2023/07/05 09:57:47;;;;;;;8.00;1.10;;;12.50;99.90;;;;;;5136293;27;20100;-68
2023/07/05 10:00:25;;;;;;;7.93;1.15;;;12.50;99.90;;;;;;5136341;27;20046;-68
2023/07/05 10:03:02;;;;;;;9.93;1.20;;;12.50;99.90;;;;;;5117982;27;20137;-68
2023/07/05 10:05:29;;;;;;;10.43;1.10;;;12.50;99.90;;;;;;5136223;27;20047;-67
2023/07/05 10:08:01;;;;;;;8.52;1.23;;;12.50;99.90;;;;;;5135963;27;20120;-67
2023/07/05 10:10:34;;;;;;;7.47;0.80;;;12.50;99.90;;;;;;5117971;27;20484;-68
2023/07/05 10:13:26;;;;;;;6.80;0.75;;;12.50;99.90;;;;;;5118142;27;20413;-67
2023/07/05 10:16:01;;;;;;;6.55;0.80;;;12.50;99.90;;;;;;5126592;27;20103;-66
2023/07/05 10:18:30;;;;;;;9.88;1.38;;;12.50;99.90;;;;;;5136841;27;20379;-66
2023/07/05 10:21:03;;;;;;;5.18;0.77;;;12.60;99.90;;;;;;5100773;27;20362;-66
2023/07/05 10:23:30;;;;;;;6.80;1.00;;;12.50;99.90;;;;;;5117738;27;20390;-67
2023/07/05 10:26:02;;;;;;;7.28;1.00;;;12.60;99.90;;;;;;5135711;27;20063;-66
2023/07/05 10:28:30;;;;;;;7.43;1.17;;;12.60;99.90;;;;;;5136096;27;20055;-66
2023/07/05 10:31:04;;;;;;;6.70;0.82;;;12.60;99.90;;;;;;5117425;27;20048;-67
2023/07/05 10:33:37;;;;;;;2.97;0.70;;;12.60;99.90;;;;;;5135829;27;20479;-68
2023/07/05 10:36:12;;;;;;;5.65;0.90;;;12.70;99.90;;;;;;5136034;27;20455;-65
2023/07/05 10:38:45;;;;;;;6.28;1.25;;;12.70;99.90;;;;;;5152554;27;20043;-67
2023/07/05 10:41:20;;;;;;;6.32;1.40;;;12.70;99.90;;;;;;5117114;27;20517;-69
2023/07/05 10:44:00;;;;;;;6.30;1.00;;;12.70;99.90;;;;;;5135585;27;20043;-69
2023/07/05 10:46:27;;;;;;;6.10;0.90;;;12.70;99.90;;;;;;5152012;27;20047;-68
2023/07/05 10:48:53;;;;;;;12.17;1.53;;;12.70;99.90;;;;;;5116732;27;20047;-66
2023/07/05 10:51:25;;;;;;;8.23;1.65;;;12.60;99.90;;;;;;5117073;27;20050;-68
2023/07/05 10:54:17;;;;;;;7.97;1.10;;;12.60;99.90;;;;;;5135154;27;20042;-69
2023/07/05 10:56:45;;;;;;;10.10;1.10;;;12.50;99.90;;;;;;5136017;27;20075;-66
2023/07/05 10:59:33;;;;;;;10.98;1.30;;;12.50;99.90;;;;;;5135292;27;20039;-67
2023/07/05 11:02:06;;;;;;;6.72;1.10;;;12.40;99.90;;;;;;5134976;27;20102;-66
2023/07/05 11:04:34;;;;;;;9.07;1.63;;;12.40;99.90;;;;;;5135094;27;20039;-67
2023/07/05 11:07:07;;;;;;;7.30;1.30;;;12.40;99.90;;;;;;5135006;27;20165;-68
2023/07/05 11:09:35;;;;;;;13.00;1.38;;;12.40;99.90;;;;;;5134888;27;20050;-66
2023/07/05 11:12:05;;;;;;;7.35;1.40;;;12.40;99.90;;;;;;5100193;27;20497;-68
2023/07/05 11:14:32;;;;;;;8.05;1.58;;;12.40;99.90;;;;;;5116656;27;20047;-69
2023/07/05 11:16:58;;;;;;;9.07;1.48;;;12.40;99.90;;;;;;5134830;27;20072;-67
2023/07/05 11:19:29;;;;;;;12.93;1.90;;;12.40;99.90;;;;;;5134862;27;20050;-69
2023/07/05 11:21:55;;;;;;;8.52;1.17;;;12.40;99.90;;;;;;5116482;27;20155;-67
2023/07/05 11:24:53;;;;;;;12.17;2.60;;;12.50;99.90;;;;;;5134450;27;20082;-69
2023/07/05 11:27:25;;;;;;;14.23;2.10;;;12.50;99.90;;;;;;5088690;27;20316;-67
2023/07/05 11:29:53;;;;;;;7.78;1.20;;;12.50;99.90;;;;;;5134194;27;20051;-66
2023/07/05 11:32:28;;;;;;;9.18;1.50;;;12.40;99.90;;;;;;5116532;27;20047;-68
2023/07/05 11:34:55;;;;;;;12.27;1.48;;;12.40;99.90;;;;;;5134989;27;20039;-67
2023/07/05 11:37:21;;;;;;;7.65;1.05;;;12.40;99.90;;;;;;5116385;27;20075;-68
2023/07/05 11:39:49;;;;;;;7.93;1.88;;;12.50;99.90;;;;;;5116886;27;20101;-70
2023/07/05 11:42:15;;;;;;;8.63;1.02;;;12.60;99.90;;;;;;5135027;27;20130;-67
2023/07/05 11:44:45;;;;;;;7.15;1.00;;;12.60;99.90;;;;;;5134501;27;20090;-68
2023/07/05 11:47:34;;;;;;;6.63;1.20;;;12.70;99.90;;;;;;5134283;27;20095;-66
2023/07/05 11:50:07;;;;;;;6.05;0.65;;;12.70;99.90;;;;;;5134536;28;20383;-66
2023/07/05 11:52:35;;;;;;;5.45;0.63;;;12.70;99.90;;;;;;5116869;28;20058;-66
2023/07/05 11:55:23;;;;;;;7.70;1.00;;;12.70;99.90;;;;;;5115875;28;20051;-66
2023/07/05 11:57:55;;;;;;;8.35;1.13;;;12.70;99.90;;;;;;5134707;28;20491;-66
2023/07/05 12:00:34;;;;;;;8.00;1.27;;;12.70;99.90;;;;;;5134960;28;20368;-67
2023/07/05 12:03:21;;;;;;;5.40;0.93;;;12.70;99.90;;;;;;5134795;28;20487;-66
2023/07/05 12:05:54;;;;;;;;;;;12.80;99.90;;;;;;5116408;28;20047;-66
2023/07/05 12:08:27;;;;;;;6.78;0.80;;;12.90;99.90;;;;;;5134194;28;20424;-66
2023/07/05 12:11:01;;;;;;;5.03;0.95;;;12.90;99.90;;;;;;5133956;27;20494;-69
2023/07/05 12:13:31;;;;;;;6.57;1.10;;;13.00;99.90;;;;;;5138517;27;20047;-67
2023/07/05 12:15:58;;;;;;;6.30;0.93;;;13.10;99.90;;;;;;5120709;27;20471;-68
2023/07/05 12:18:25;;;;;;;3.13;0.80;;;13.10;99.90;;;;;;5103802;27;20127;-68
2023/07/05 12:20:54;;;;;;;;;;;13.10;99.90;;;;;;5138631;27;20495;-72
2023/07/05 12:23:24;;;;;;;5.45;1.08;;;13.00;99.90;;;;;;5138204;27;19972;-66
2023/07/05 12:25:56;;;;;;;9.75;1.33;;;13.10;99.90;;;;;;5137836;27;20491;-68
2023/07/05 12:28:25;;;;;;;5.78;0.98;;;13.30;99.90;;;;;;5119384;27;20059;-67
2023/07/05 12:30:56;;;;;;;8.55;1.90;;;13.50;99.90;;;;;;5138085;27;20051;-68
2023/07/05 12:33:26;;;;;;;8.73;1.58;;;13.60;99.90;;;;;;5138036;27;20040;-67
2023/07/05 12:36:15;;;;;;;4.57;0.80;;;13.70;99.90;;;;;;5138063;27;20051;-66
2023/07/05 12:38:43;;;;;;;9.82;2.13;;;13.80;99.90;;;;;;5137844;27;20078;-67
2023/07/05 12:41:24;;;;;;;8.93;1.85;;;13.80;99.90;;;;;;5136635;27;20047;-66
2023/07/05 12:43:58;;;;;;;12.13;1.60;;;14.00;99.90;;;;;;5137888;27;20447;-66
2023/07/05 12:46:26;;;;;;;8.38;1.95;;;14.20;99.90;;;;;;5137837;27;20078;-66
2023/07/05 12:48:53;;;;;;;9.20;1.88;;;14.40;99.90;;;;;;5119546;27;20096;-67
2023/07/05 12:51:23;;;;;;;11.95;1.98;;;14.50;99.90;;;;;;5138628;27;20086;-67
2023/07/05 12:53:56;;;;;;;10.55;2.55;;;14.50;99.90;;;;;;5137745;27;20484;-68
2023/07/05 12:56:32;;;;;;;11.93;1.77;;;14.40;99.90;;;;;;5137710;27;20047;-66
2023/07/05 12:59:06;;;;;;;13.47;2.03;;;14.40;99.90;;;;;;5119245;27;20046;-66